createdAt,value
2022-08-09T00:00:04.316Z,102050.91
2022-08-09T00:02:34.541Z,102057.44
2022-08-09T00:06:16.262Z,102055.50
2022-08-09T00:07:49.862Z,102065.84
2022-08-09T00:10:24.655Z,102062.97
2022-08-09T00:12:53.127Z,102059.88
2022-08-09T00:15:35.286Z,102064.75
2022-08-09T00:18:11.899Z,102062.94
2022-08-09T00:20:50.179Z,102063.34
2022-08-09T00:23:54.792Z,102057.34
2022-08-09T00:26:07.963Z,102058.47
2022-08-09T00:28:35.388Z,102057.75
2022-08-09T00:31:09.158Z,102053.69
2022-08-09T00:33:54.689Z,102048.63
2022-08-09T00:36:29.658Z,102059.66
2022-08-09T00:38:58.966Z,102059.72
2022-08-09T00:44:19.390Z,102062.66
2022-08-09T00:44:27.383Z,102056.06
2022-08-09T00:47:04.900Z,102054.88
2022-08-09T00:49:36.758Z,102048.72
2022-08-09T00:52:15.954Z,102057.94
2022-08-09T00:54:46.264Z,102060.63
2022-08-09T00:57:13.877Z,102058.53
2022-08-09T00:59:52.877Z,102060.53
2022-08-09T01:02:28.529Z,102059.91
2022-08-09T01:05:22.479Z,102057.59
2022-08-09T01:08:54.931Z,102065.31
2022-08-09T01:12:04.267Z,102065.38
2022-08-09T01:14:52.631Z,102064.91
2022-08-09T01:17:20.775Z,102065.91
2022-08-09T01:20:29.211Z,102062.84
2022-08-09T01:23:12.323Z,102055.22
2022-08-09T01:26:14.288Z,102061.94
2022-08-09T01:28:46.036Z,102067.47
2022-08-09T01:32:28.199Z,102060.09
2022-08-09T01:34:08.929Z,102070.03
2022-08-09T01:36:39.332Z,102068.13
2022-08-09T01:39:07.190Z,102070.09
2022-08-09T01:41:36.763Z,102069.72
2022-08-09T01:44:25.302Z,102060.66
2022-08-09T01:46:53.524Z,102068.75
2022-08-09T01:49:24.113Z,102070.31
2022-08-09T01:51:56.439Z,102075.50
2022-08-09T01:54:35.710Z,102071.09
2022-08-09T01:57:17.629Z,102072.13
2022-08-09T01:59:52.663Z,102073.19
2022-08-09T02:02:30.962Z,102070.56
2022-08-09T02:05:05.676Z,102076.59
2022-08-09T02:08:39.346Z,102067.13
2022-08-09T02:10:51.738Z,102077.81
2022-08-09T02:13:26.051Z,102070.91
2022-08-09T02:16:07.363Z,102075.25
2022-08-09T02:18:38.127Z,102075.69
2022-08-09T02:21:17.227Z,102068.50
2022-08-09T02:24:00.107Z,102065.97
2022-08-09T02:26:33.747Z,102065.38
2022-08-09T02:29:11.310Z,102070.50
2022-08-09T02:31:43.501Z,102071.03
2022-08-09T02:34:38.680Z,102064.88
2022-08-09T02:37:14.889Z,102063.97
2022-08-09T02:40:09.435Z,102066.66
2022-08-09T02:42:43.092Z,102072.25
2022-08-09T02:45:34.324Z,102064.16
2022-08-09T02:48:19.384Z,102066.53
2022-08-09T02:50:57.186Z,102068.66
2022-08-09T02:53:34.325Z,102070.19
2022-08-09T02:56:03.593Z,102072.00
2022-08-09T02:58:36.775Z,102070.59
2022-08-09T03:01:08.254Z,102074.75
2022-08-09T03:04:17.258Z,102086.56
2022-08-09T03:06:29.010Z,102077.38
2022-08-09T03:08:57.825Z,102076.19
2022-08-09T03:12:04.501Z,102084.44
2022-08-09T03:14:16.577Z,102079.50
2022-08-09T03:16:47.397Z,102085.06
2022-08-09T03:19:58.854Z,102082.13
2022-08-09T03:22:12.113Z,102078.78
2022-08-09T03:25:25.723Z,102082.69
2022-08-09T03:27:49.372Z,102081.03
2022-08-09T03:30:23.624Z,102081.03
2022-08-09T03:33:16.744Z,102079.97
2022-08-09T03:36:13.414Z,102082.69
2022-08-09T03:38:43.154Z,102079.03
2022-08-09T03:41:18.456Z,102079.78
2022-08-09T03:43:51.667Z,102079.66
2022-08-09T03:46:37.655Z,102084.22
2022-08-09T03:49:08.074Z,102084.84
2022-08-09T03:51:55.888Z,102084.72
2022-08-09T03:54:34.581Z,102090.47
2022-08-09T03:57:17.881Z,102092.41
2022-08-09T03:59:54.995Z,102092.38
2022-08-09T04:02:28.001Z,102095.06
2022-08-09T04:05:05.794Z,102098.00
2022-08-09T04:07:53.214Z,102096.16
2022-08-09T04:10:29.555Z,102097.16
2022-08-09T04:13:03.733Z,102090.28
2022-08-09T04:15:52.460Z,102092.91
2022-08-09T04:18:21.206Z,102102.63
2022-08-09T04:20:51.332Z,102092.66
2022-08-09T04:23:24.355Z,102090.09
2022-08-09T04:25:53.220Z,102100.16
2022-08-09T04:28:34.559Z,102093.97
2022-08-09T04:31:09.728Z,102103.25
2022-08-09T04:33:53.019Z,102103.59
2022-08-09T04:36:28.186Z,102106.75
2022-08-09T04:38:59.306Z,102108.31
2022-08-09T04:41:32.374Z,102114.00
2022-08-09T04:44:07.253Z,102118.44
2022-08-09T04:46:59.647Z,102116.31
2022-08-09T04:49:52.196Z,102109.63
2022-08-09T04:52:26.498Z,102110.38
2022-08-09T04:54:57.224Z,102119.56
2022-08-09T04:57:25.396Z,102120.47
2022-08-09T04:59:54.241Z,102120.31
2022-08-09T05:02:23.619Z,102126.09
2022-08-09T05:04:55.188Z,102127.09
2022-08-09T05:07:24.397Z,102133.56
2022-08-09T05:09:51.621Z,102128.63
2022-08-09T05:12:19.058Z,102127.25
2022-08-09T05:14:49.739Z,102130.34
2022-08-09T05:18:39.622Z,102135.53
2022-08-09T05:20:05.489Z,102129.97
2022-08-09T05:22:36.243Z,102131.78
2022-08-09T05:25:24.828Z,102132.69
2022-08-09T05:27:55.546Z,102134.19
2022-08-09T05:30:22.691Z,102135.66
2022-08-09T05:32:51.143Z,102135.28
2022-08-09T05:35:22.040Z,102137.91
2022-08-09T05:37:51.133Z,102143.53
2022-08-09T05:40:18.823Z,102140.56
2022-08-09T05:42:47.043Z,102135.22
2022-08-09T05:45:14.484Z,102137.69
2022-08-09T05:47:45.617Z,102138.19
2022-08-09T05:50:36.162Z,102140.88
2022-08-09T05:53:25.010Z,102142.91
2022-08-09T05:55:59.028Z,102131.16
2022-08-09T05:58:26.755Z,102145.09
2022-08-09T06:00:54.069Z,102145.00
2022-08-09T06:03:21.246Z,102151.75
2022-08-09T06:06:02.719Z,102143.38
2022-08-09T06:08:33.966Z,102144.47
2022-08-09T06:11:01.359Z,102146.22
2022-08-09T06:13:44.201Z,102149.16
2022-08-09T06:16:13.082Z,102149.78
2022-08-09T06:18:40.286Z,102149.06
2022-08-09T06:21:08.239Z,102150.41
2022-08-09T06:23:58.857Z,102152.53
2022-08-09T06:26:28.278Z,102158.09
2022-08-09T06:29:04.709Z,102150.13
2022-08-09T06:31:40.187Z,102149.06
2022-08-09T06:34:22.779Z,102161.75
2022-08-09T06:36:59.026Z,102153.63
2022-08-09T06:39:48.853Z,102167.16
2022-08-09T06:42:24.904Z,102163.16
2022-08-09T06:44:55.469Z,102158.19
2022-08-09T06:47:25.028Z,102162.03
2022-08-09T06:50:13.757Z,102166.84
2022-08-09T06:52:46.999Z,102160.22
2022-08-09T06:55:22.505Z,102170.56
2022-08-09T06:58:03.034Z,102167.34
2022-08-09T07:00:56.901Z,102168.69
2022-08-09T07:03:28.060Z,102169.25
2022-08-09T07:06:03.641Z,102168.81
2022-08-09T07:08:33.862Z,102171.88
2022-08-09T07:11:03.411Z,102176.13
2022-08-09T07:14:00.242Z,102171.88
2022-08-09T07:16:41.165Z,102172.03
2022-08-09T07:19:06.177Z,102181.16
2022-08-09T07:21:34.958Z,102181.00
2022-08-09T07:24:05.075Z,102174.09
2022-08-09T07:26:32.628Z,102179.53
2022-08-09T07:29:11.807Z,102179.88
2022-08-09T07:31:45.399Z,102183.84
2022-08-09T07:34:20.726Z,102177.53
2022-08-09T07:36:49.621Z,102179.03
2022-08-09T07:39:20.177Z,102183.28
2022-08-09T07:42:06.273Z,102184.34
2022-08-09T07:44:52.390Z,102178.94
2022-08-09T07:47:23.239Z,102184.38
2022-08-09T07:50:05.145Z,102176.47
2022-08-09T07:52:36.690Z,102179.97
2022-08-09T07:55:09.966Z,102181.94
2022-08-09T07:57:46.895Z,102180.53
2022-08-09T08:00:20.844Z,102177.59
2022-08-09T08:03:08.700Z,102180.56
2022-08-09T08:05:53.565Z,102182.38
2022-08-09T08:09:02.325Z,102180.84
2022-08-09T08:12:09.004Z,102180.00
2022-08-09T08:14:04.717Z,102181.31
2022-08-09T08:16:34.532Z,102180.66
2022-08-09T08:19:03.224Z,102167.94
2022-08-09T08:21:31.808Z,102173.53
2022-08-09T08:24:01.237Z,102177.06
2022-08-09T08:26:54.660Z,102174.34
2022-08-09T08:29:27.378Z,102179.09
2022-08-09T08:32:04.302Z,102176.63
2022-08-09T08:34:36.102Z,102176.72
2022-08-09T08:37:05.295Z,102187.81
2022-08-09T08:39:39.697Z,102192.56
2022-08-09T08:42:12.535Z,102186.31
2022-08-09T08:44:42.891Z,102190.84
2022-08-09T08:47:13.465Z,102192.34
2022-08-09T08:49:48.358Z,102197.50
2022-08-09T08:55:06.729Z,102183.31
2022-08-09T08:57:35.176Z,102182.19
2022-08-09T09:00:12.600Z,102195.38
2022-08-09T09:02:46.902Z,102181.69
2022-08-09T09:05:57.534Z,102189.88
2022-08-09T09:08:29.894Z,102181.72
2022-08-09T09:11:05.692Z,102183.88
2022-08-09T09:13:55.561Z,102181.84
2022-08-09T09:16:35.739Z,102190.53
2022-08-09T09:22:34.226Z,102191.22
2022-08-09T09:26:02.486Z,102177.75
2022-08-09T09:28:06.483Z,102184.47
2022-08-09T09:30:53.343Z,102181.69
2022-08-09T09:33:20.654Z,102188.91
2022-08-09T09:36:19.913Z,102180.50
2022-08-09T09:38:58.236Z,102187.59
2022-08-09T09:41:33.034Z,102190.50
2022-08-09T09:44:12.148Z,102189.75
2022-08-09T09:46:51.969Z,102188.25
2022-08-09T09:49:56.417Z,102183.22
2022-08-09T09:52:16.640Z,102189.13
2022-08-09T09:55:23.877Z,102184.91
2022-08-09T09:58:03.254Z,102177.28
2022-08-09T10:00:59.710Z,102185.78
2022-08-09T10:03:56.455Z,102180.78
2022-08-09T10:06:32.534Z,102180.34
2022-08-09T10:09:21.600Z,102167.41
2022-08-09T10:12:14.302Z,102177.75
2022-08-09T10:14:50.051Z,102172.59
2022-08-09T10:17:39.498Z,102172.59
2022-08-09T10:20:27.111Z,102181.06
2022-08-09T10:23:23.744Z,102171.19
2022-08-09T10:26:06.034Z,102168.25
2022-08-09T10:28:38.265Z,102161.28
2022-08-09T10:34:11.161Z,102164.63
2022-08-09T10:36:42.910Z,102150.31
2022-08-09T10:39:15.723Z,102156.06
2022-08-09T10:41:47.598Z,102147.69
2022-08-09T10:44:23.131Z,102151.09
2022-08-09T10:48:20.280Z,102144.50
2022-08-09T10:50:49.466Z,102148.53
2022-08-09T10:53:46.925Z,102144.16
2022-08-09T10:56:33.693Z,102134.31
2022-08-09T10:59:43.171Z,102130.25
2022-08-09T11:03:07.354Z,102136.47
2022-08-09T11:05:30.183Z,102145.66
2022-08-09T11:08:47.458Z,102138.34
2022-08-09T11:11:19.674Z,102131.88
2022-08-09T11:13:53.677Z,102129.22
2022-08-09T11:16:39.337Z,102126.38
2022-08-09T11:19:10.649Z,102123.19
2022-08-09T11:21:55.203Z,102125.25
2022-08-09T11:24:57.973Z,102121.91
2022-08-09T11:28:02.490Z,102118.22
2022-08-09T11:30:33.322Z,102117.06
2022-08-09T11:33:19.296Z,102123.06
2022-08-09T11:35:58.647Z,102125.38
2022-08-09T11:38:41.167Z,102125.84
2022-08-09T11:41:13.127Z,102123.81
2022-08-09T11:43:49.340Z,102118.72
2022-08-09T11:46:32.803Z,102115.16
2022-08-09T11:49:05.298Z,102114.41
2022-08-09T11:53:04.053Z,102112.91
2022-08-09T11:55:51.666Z,102105.81
2022-08-09T11:58:32.709Z,102100.34
2022-08-09T12:01:15.685Z,102103.13
2022-08-09T12:04:03.460Z,102097.00
2022-08-09T12:06:35.236Z,102098.19
2022-08-09T12:09:19.695Z,102095.03
2022-08-09T12:12:03.598Z,102096.81
2022-08-09T12:14:36.840Z,102090.75
2022-08-09T12:17:28.178Z,102102.88
2022-08-09T12:20:00.781Z,102102.03
2022-08-09T12:22:29.210Z,102095.91
2022-08-09T12:25:37.006Z,102094.81
2022-08-09T12:29:15.412Z,102094.50
2022-08-09T12:31:31.059Z,102090.19
2022-08-09T12:34:14.253Z,102094.47
2022-08-09T12:37:09.491Z,102092.03
2022-08-09T12:39:58.288Z,102084.41
2022-08-09T12:42:25.799Z,102089.88
2022-08-09T12:44:54.608Z,102080.34
2022-08-09T12:47:23.232Z,102093.66
2022-08-09T12:50:09.105Z,102091.47
2022-08-09T12:53:17.660Z,102093.22
2022-08-09T12:56:14.702Z,102094.22
2022-08-09T12:58:27.241Z,102086.69
2022-08-09T13:00:56.254Z,102075.81
2022-08-09T13:03:53.860Z,102081.53
2022-08-09T13:06:46.453Z,102070.53
2022-08-09T13:09:24.227Z,102068.56
2022-08-09T13:12:02.193Z,102069.28
2022-08-09T13:14:41.765Z,102071.50
2022-08-09T13:17:44.104Z,102076.78
2022-08-09T13:20:14.028Z,102070.72
2022-08-09T13:23:06.113Z,102081.66
2022-08-09T13:25:54.396Z,102076.97
2022-08-09T13:28:34.005Z,102086.72
2022-08-09T13:32:17.962Z,102086.88
2022-08-09T13:33:59.230Z,102094.72
2022-08-09T13:36:40.537Z,102089.19
2022-08-09T13:41:45.638Z,102087.69
2022-08-09T13:42:05.029Z,102081.47
2022-08-09T13:44:33.729Z,102091.09
2022-08-09T13:47:27.405Z,102090.41
2022-08-09T13:49:57.521Z,102082.06
2022-08-09T13:52:30.430Z,102097.69
2022-08-09T13:55:00.843Z,102090.38
2022-08-09T13:57:40.806Z,102092.91
2022-08-09T14:00:18.807Z,102101.03
2022-08-09T14:03:04.081Z,102104.88
2022-08-09T14:05:57.321Z,102120.13
2022-08-09T14:08:26.853Z,102126.78
2022-08-09T14:10:56.154Z,102124.66
2022-08-09T14:14:14.991Z,102135.41
2022-08-09T14:16:28.145Z,102144.47
2022-08-09T14:18:58.151Z,102153.53
2022-08-09T14:21:29.241Z,102156.47
2022-08-09T14:24:01.437Z,102151.94
2022-08-09T14:26:38.049Z,102151.69
2022-08-09T14:29:25.848Z,102147.56
2022-08-09T14:31:56.636Z,102158.59
2022-08-09T14:34:31.165Z,102170.50
2022-08-09T14:37:06.462Z,102189.09
2022-08-09T14:39:47.972Z,102188.72
2022-08-09T14:42:40.504Z,102187.09
2022-08-09T14:46:54.647Z,102187.97
2022-08-09T14:48:09.422Z,102186.53
2022-08-09T14:50:37.632Z,102180.34
2022-08-09T14:53:12.230Z,102170.75
2022-08-09T14:55:49.970Z,102174.56
2022-08-09T14:58:18.599Z,102165.66
2022-08-09T15:00:48.539Z,102159.16
2022-08-09T15:03:20.237Z,102166.00
2022-08-09T15:05:52.537Z,102166.22
2022-08-09T15:08:24.574Z,102171.34
2022-08-09T15:11:00.662Z,102156.41
2022-08-09T15:13:48.623Z,102160.25
2022-08-09T15:16:20.021Z,102157.69
2022-08-09T15:18:49.432Z,102158.91
2022-08-09T15:21:54.650Z,102163.47
2022-08-09T15:24:13.087Z,102162.44
2022-08-09T15:26:46.318Z,102166.69
2022-08-09T15:30:55.937Z,102160.69
2022-08-09T15:32:01.862Z,102156.09
2022-08-09T15:34:34.018Z,102151.06
2022-08-09T15:37:04.119Z,102152.50
2022-08-09T15:39:34.490Z,102156.09
2022-08-09T15:42:02.636Z,102153.06
2022-08-09T15:44:32.645Z,102148.19
2022-08-09T15:47:00.875Z,102143.44
2022-08-09T15:49:28.576Z,102144.47
2022-08-09T15:52:03.147Z,102147.47
2022-08-09T15:54:48.983Z,102149.22
2022-08-09T15:57:34.694Z,102151.31
2022-08-09T16:00:25.538Z,102145.06
2022-08-09T16:02:56.188Z,102141.66
2022-08-09T16:05:47.477Z,102142.56
2022-08-09T16:08:30.139Z,102139.88
2022-08-09T16:11:03.110Z,102144.69
2022-08-09T16:14:05.595Z,102145.13
2022-08-09T16:16:19.821Z,102144.09
2022-08-09T16:18:48.149Z,102138.28
2022-08-09T16:21:17.206Z,102140.63
2022-08-09T16:23:55.646Z,102142.81
2022-08-09T16:26:34.117Z,102138.44
2022-08-09T16:29:21.062Z,102129.63
2022-08-09T16:32:17.779Z,102121.31
2022-08-09T16:34:56.916Z,102117.97
2022-08-09T16:37:55.413Z,102128.81
2022-08-09T16:40:20.500Z,102126.84
2022-08-09T16:42:58.411Z,102123.59
2022-08-09T16:45:27.164Z,102120.69
2022-08-09T16:48:42.958Z,102122.22
2022-08-09T16:50:58.880Z,102118.03
2022-08-09T16:53:32.594Z,102125.56
2022-08-09T16:56:07.662Z,102123.28
2022-08-09T16:58:49.686Z,102129.28
2022-08-09T17:01:19.524Z,102133.44
2022-08-09T17:03:52.656Z,102137.22
2022-08-09T17:06:31.645Z,102143.16
2022-08-09T17:09:16.194Z,102138.22
2022-08-09T17:12:17.242Z,102136.81
2022-08-09T17:14:47.795Z,102136.88
2022-08-09T17:17:27.104Z,102131.81
2022-08-09T17:20:28.586Z,102144.25
2022-08-09T17:22:51.956Z,102146.63
2022-08-09T17:25:22.054Z,102146.53
2022-08-09T17:27:54.041Z,102142.72
2022-08-09T17:30:47.546Z,102139.47
2022-08-09T17:33:22.697Z,102148.09
2022-08-09T17:35:50.596Z,102149.13
2022-08-09T17:38:30.584Z,102149.16
2022-08-09T17:41:02.211Z,102145.38
2022-08-09T17:43:33.679Z,102142.72
2022-08-09T17:46:08.671Z,102149.78
2022-08-09T17:48:52.106Z,102145.97
2022-08-09T17:51:21.884Z,102148.78
2022-08-09T17:53:53.525Z,102149.78
2022-08-09T17:56:28.831Z,102147.00
2022-08-09T17:59:09.083Z,102152.09
2022-08-09T18:01:40.950Z,102161.59
2022-08-09T18:04:27.754Z,102157.53
2022-08-09T18:06:55.863Z,102166.78
2022-08-09T18:09:41.169Z,102169.38
2022-08-09T18:12:40.862Z,102164.34
2022-08-09T18:15:02.079Z,102169.16
2022-08-09T18:18:03.795Z,102162.09
2022-08-09T18:20:55.000Z,102169.16
2022-08-09T18:23:06.994Z,102167.06
2022-08-09T18:25:53.574Z,102175.38
2022-08-09T18:30:35.698Z,102172.59
2022-08-09T18:31:14.715Z,102179.41
2022-08-09T18:33:53.071Z,102176.66
2022-08-09T18:36:25.779Z,102181.75
2022-08-09T18:39:16.076Z,102183.25
2022-08-09T18:41:52.912Z,102190.53
2022-08-09T18:44:23.021Z,102182.19
2022-08-09T18:47:08.274Z,102185.03
2022-08-09T18:49:46.145Z,102188.69
2022-08-09T18:52:18.614Z,102190.91
2022-08-09T18:54:53.377Z,102197.53
2022-08-09T18:57:22.969Z,102187.47
2022-08-09T18:59:55.626Z,102194.16
2022-08-09T19:02:30.880Z,102194.44
2022-08-09T19:05:15.277Z,102202.75
2022-08-09T19:08:04.516Z,102203.31
2022-08-09T19:10:37.542Z,102201.91
2022-08-09T19:13:22.503Z,102201.09
2022-08-09T19:15:55.685Z,102202.22
2022-08-09T19:18:36.440Z,102206.25
2022-08-09T19:21:10.561Z,102205.00
2022-08-09T19:24:32.674Z,102207.31
2022-08-09T19:26:35.148Z,102199.22
2022-08-09T19:29:15.044Z,102207.47
2022-08-09T19:31:46.386Z,102211.97
2022-08-09T19:34:22.258Z,102206.72
2022-08-09T19:36:55.802Z,102207.31
2022-08-09T19:39:43.930Z,102204.09
2022-08-09T19:42:14.629Z,102213.00
2022-08-09T19:44:50.676Z,102211.75
2022-08-09T19:47:23.314Z,102215.41
2022-08-09T19:50:07.316Z,102216.91
2022-08-09T19:52:51.704Z,102219.59
2022-08-09T19:55:30.915Z,102233.47
2022-08-09T19:58:16.468Z,102235.63
2022-08-09T20:00:45.569Z,102233.25
2022-08-09T20:04:08.401Z,102229.66
2022-08-09T20:06:03.324Z,102230.84
2022-08-09T20:08:35.142Z,102238.09
2022-08-09T20:11:04.744Z,102230.47
2022-08-09T20:13:36.811Z,102233.31
2022-08-09T20:16:35.537Z,102236.81
2022-08-09T20:19:48.352Z,102236.56
2022-08-09T20:21:56.628Z,102230.97
2022-08-09T20:24:32.120Z,102234.78
2022-08-09T20:27:08.404Z,102246.06
2022-08-09T20:29:39.844Z,102249.22
2022-08-09T20:32:28.687Z,102250.16
2022-08-09T20:35:01.449Z,102246.78
2022-08-09T20:37:37.079Z,102247.66
2022-08-09T20:40:27.191Z,102248.88
2022-08-09T20:43:12.275Z,102245.59
2022-08-09T20:46:00.651Z,102248.53
2022-08-09T20:48:33.489Z,102248.44
2022-08-09T20:51:01.435Z,102242.44
2022-08-09T20:53:36.518Z,102234.38
2022-08-09T20:56:20.728Z,102239.13
2022-08-09T20:58:57.825Z,102240.59
2022-08-09T21:01:50.379Z,102239.81
2022-08-09T21:05:54.123Z,102231.72
2022-08-09T21:07:12.375Z,102244.91
2022-08-09T21:09:56.083Z,102242.75
2022-08-09T21:15:15.964Z,102256.84
2022-08-09T21:18:23.586Z,102246.94
2022-08-09T21:20:43.296Z,102251.16
2022-08-09T21:23:15.535Z,102260.06
2022-08-09T21:25:55.539Z,102262.72
2022-08-09T21:28:34.491Z,102267.09
2022-08-09T21:31:16.326Z,102262.16
2022-08-09T21:33:52.448Z,102265.66
2022-08-09T21:36:28.626Z,102257.19
2022-08-09T21:38:59.428Z,102263.38
2022-08-09T21:42:05.006Z,102259.28
2022-08-09T21:44:33.482Z,102263.41
2022-08-09T21:47:10.846Z,102263.22
2022-08-09T21:49:45.512Z,102261.34
2022-08-09T21:52:17.612Z,102259.66
2022-08-09T21:55:03.512Z,102256.13
2022-08-09T21:57:59.287Z,102267.34
2022-08-09T22:00:33.584Z,102263.38
2022-08-09T22:03:07.575Z,102267.31
2022-08-09T22:05:46.271Z,102271.03
2022-08-09T22:08:19.532Z,102272.28
2022-08-09T22:11:50.099Z,102274.13
2022-08-09T22:13:43.274Z,102276.00
2022-08-09T22:16:12.033Z,102262.34
2022-08-09T22:18:53.702Z,102266.91
2022-08-09T22:21:27.245Z,102273.50
2022-08-09T22:24:16.983Z,102267.72
2022-08-09T22:26:51.421Z,102261.94
2022-08-09T22:29:22.971Z,102267.22
2022-08-09T22:31:57.400Z,102263.19
2022-08-09T22:34:27.539Z,102253.69
2022-08-09T22:36:57.025Z,102266.91
2022-08-09T22:39:55.979Z,102265.25
2022-08-09T22:42:16.243Z,102265.03
2022-08-09T22:48:04.932Z,102265.44
2022-08-09T22:48:15.793Z,102267.31
2022-08-09T22:50:27.108Z,102273.09
2022-08-09T22:52:57.717Z,102262.75
2022-08-09T22:55:39.663Z,102259.03
2022-08-09T22:58:20.299Z,102268.13
2022-08-09T23:01:02.155Z,102266.47
2022-08-09T23:04:03.652Z,102265.03
2022-08-09T23:06:34.811Z,102263.56
2022-08-09T23:09:07.150Z,102266.44
2022-08-09T23:11:34.550Z,102271.38
2022-08-09T23:14:03.438Z,102268.50
2022-08-09T23:16:31.415Z,102270.16
2022-08-09T23:18:58.630Z,102258.16
2022-08-09T23:21:29.934Z,102269.22
2022-08-09T23:24:06.627Z,102272.03
2022-08-09T23:26:37.350Z,102274.63
2022-08-09T23:29:11.545Z,102269.91
2022-08-09T23:31:38.910Z,102276.75
2022-08-09T23:34:06.267Z,102274.28
2022-08-09T23:36:35.160Z,102265.53
2022-08-09T23:39:06.452Z,102271.72
2022-08-09T23:41:34.270Z,102268.03
2022-08-09T23:44:02.861Z,102278.34
2022-08-09T23:46:31.447Z,102271.75
2022-08-09T23:48:59.785Z,102266.22
2022-08-09T23:51:28.634Z,102266.78
2022-08-09T23:54:02.146Z,102264.66
2022-08-09T23:56:52.172Z,102272.22
2022-08-09T23:59:20.772Z,102267.47
